Terminal Aerodrome Forecast
Issued by NWS

Home | Current Version | Previous Version | Text Only | Print | Product List | Glossary On
Versions: 1 2 3 4 5 6 7 8 9 10 11 12 13 14 15 16 17
000
FTUS46 KSEW 031747
TAFPAE
TAF
KPAE 031747Z 0318/0418 15005KT P6SM VCSH BKN015 OVC025
     FM032000 17006KT P6SM -SHRA BKN020
     FM032100 23005KT P6SM VCSH BKN030 BKN080
     FM040100 34004KT P6SM BKN060
     FM040400 VRB04KT P6SM SCT060 BKN100
     FM040900 34006KT P6SM SCT020 BKN050
     FM041700 36008KT P6SM SCT080=

USA.gov is the U.S. government's official web portal to all federal, state and local government web resources and services.